Time;durP1;ratioP1;P1;durP2;ratioP2;P2;SDS_P1;SDS_P2;PMS_P1;PMS_P2;Temp;Humidity;BMP_temperature;BMP_pressure;BME280_temperature;BME280_humidity;BME280_pressure;Samples;Min_cycle;Max_cycle;Signal;HPM_P1;HPM_P2
2022/02/13 00:00:15;;;;;;;19.38;15.00;;;0.70;99.90;;;0.75;73.07;101831.78;5012651;28;20305;-72
2022/02/13 00:02:46;;;;;;;18.65;14.40;;;0.80;99.90;;;0.90;72.68;101829.78;5013092;28;20687;-73
2022/02/13 00:05:14;;;;;;;22.42;15.52;;;1.00;99.90;;;0.88;72.46;101829.88;5013864;28;20237;-74
2022/02/13 00:07:43;;;;;;;20.75;14.10;;;1.00;99.90;;;0.95;72.09;101831.13;5012003;28;20182;-72
2022/02/13 00:10:14;;;;;;;18.95;14.27;;;1.10;99.90;;;0.87;72.24;101828.22;5012660;28;20209;-73
2022/02/13 00:12:43;;;;;;;17.98;14.50;;;1.10;99.90;;;1.00;72.44;101826.28;5011579;28;20182;-73
2022/02/13 00:15:15;;;;;;;20.58;14.50;;;1.10;99.90;;;1.01;71.83;101816.50;5010855;28;20210;-72
2022/02/13 00:17:46;;;;;;;19.52;13.93;;;1.20;99.90;;;1.17;71.57;101817.81;4993633;28;20585;-72
2022/02/13 00:20:22;;;;;;;18.67;15.00;;;1.20;99.90;;;1.23;71.37;101817.34;5011910;28;20178;-75
2022/02/13 00:22:50;;;;;;;15.10;13.50;;;1.30;99.90;;;1.33;70.89;101808.63;5012250;28;20170;-74
2022/02/13 00:25:21;;;;;;;19.20;15.02;;;1.40;99.90;;;1.26;70.66;101803.78;5012170;28;20174;-74
2022/02/13 00:27:50;;;;;;;24.83;15.10;;;1.40;99.90;;;1.25;71.63;101799.44;5012166;28;20261;-74
2022/02/13 00:30:20;;;;;;;17.85;13.10;;;1.40;99.90;;;1.30;71.04;101791.94;5011897;28;20236;-74
2022/02/13 00:32:51;;;;;;;18.58;14.15;;;1.40;99.90;;;1.23;70.91;101788.03;5012372;28;20178;-75
2022/02/13 00:35:20;;;;;;;21.75;15.82;;;1.40;99.90;;;1.24;71.22;101784.41;5012234;28;20213;-76
2022/02/13 00:37:48;;;;;;;19.55;14.45;;;1.30;99.90;;;1.36;70.78;101787.06;5012303;28;20232;-74
2022/02/13 00:40:18;;;;;;;17.80;14.57;;;1.40;99.90;;;1.36;70.83;101781.72;5012339;28;20217;-77
2022/02/13 00:42:46;;;;;;;18.20;14.32;;;1.50;99.90;;;1.45;70.08;101765.00;5012053;28;20182;-74
2022/02/13 00:45:15;;;;;;;15.27;11.73;;;1.50;99.90;;;1.43;70.75;101762.44;5012184;28;20265;-75
2022/02/13 00:47:47;;;;;;;16.70;13.55;;;1.60;99.90;;;1.39;70.11;101754.81;4994640;28;20289;-73
2022/02/13 00:50:15;;;;;;;16.83;12.40;;;1.50;99.90;;;1.30;70.29;101756.41;4994031;28;20381;-74
2022/02/13 00:52:44;;;;;;;16.45;13.23;;;1.50;99.90;;;1.19;71.04;101748.41;5011554;28;20253;-75
2022/02/13 00:55:12;;;;;;;15.35;12.60;;;1.40;99.90;;;1.26;70.58;101753.13;5013791;28;20198;-74
2022/02/13 00:57:41;;;;;;;15.07;11.65;;;1.40;99.90;;;1.19;70.86;101743.06;5014516;28;20202;-74
2022/02/13 01:00:11;;;;;;;21.35;13.35;;;1.40;99.90;;;1.12;70.74;101737.34;5015600;28;20268;-75
2022/02/13 01:02:39;;;;;;;15.40;13.10;;;1.30;99.90;;;1.14;71.00;101746.09;5015632;28;20178;-73
2022/02/13 01:05:09;;;;;;;18.50;14.60;;;1.30;99.90;;;1.22;70.75;101743.66;5015185;28;20181;-73
2022/02/13 01:07:38;;;;;;;17.23;12.15;;;1.30;99.90;;;1.10;70.96;101744.66;5015900;28;20178;-73
2022/02/13 01:10:07;;;;;;;18.92;13.50;;;1.30;99.90;;;1.16;70.94;101738.00;5015087;28;20229;-73
2022/02/13 01:12:36;;;;;;;14.32;12.30;;;1.30;99.90;;;1.14;70.81;101737.25;5015317;28;20190;-74
2022/02/13 01:15:05;;;;;;;19.40;12.90;;;1.30;99.90;;;1.10;71.09;101725.97;5014958;28;20202;-74
2022/02/13 01:17:35;;;;;;;18.10;13.07;;;1.30;99.90;;;1.00;71.17;101732.16;5014824;28;20652;-74
2022/02/13 01:20:05;;;;;;;24.70;13.02;;;1.20;99.90;;;1.08;71.20;101725.25;5014660;28;20212;-73
2022/02/13 01:22:35;;;;;;;15.55;12.60;;;1.20;99.90;;;1.17;70.41;101724.50;5015017;28;20261;-76
2022/02/13 01:25:05;;;;;;;14.93;12.77;;;1.30;99.90;;;1.06;70.80;101718.34;5014980;28;20178;-74
2022/02/13 01:27:33;;;;;;;18.08;13.25;;;1.20;99.90;;;0.99;71.09;101711.78;5014843;28;20294;-74
2022/02/13 01:30:02;;;;;;;17.73;13.40;;;1.20;99.90;;;0.94;71.41;101717.50;5028368;23;20222;-74
2022/02/13 01:32:32;;;;;;;17.38;12.60;;;1.10;99.90;;;1.01;71.11;101708.06;5017124;28;20198;-73
2022/02/13 01:35:00;;;;;;;15.50;11.15;;;1.20;99.90;;;1.05;70.73;101709.50;5016473;28;20206;-75
2022/02/13 01:37:28;;;;;;;13.85;11.05;;;1.20;99.90;;;1.00;70.81;101706.34;5016456;28;20245;-74
2022/02/13 01:39:58;;;;;;;23.42;11.77;;;1.20;99.90;;;1.04;70.75;101707.81;5016461;28;20370;-76
2022/02/13 01:42:26;;;;;;;17.10;12.43;;;1.20;99.90;;;1.01;70.44;101700.06;5016766;28;20621;-76
2022/02/13 01:44:57;;;;;;;17.23;12.23;;;1.20;99.90;;;0.92;71.02;101691.94;5063103;22;20236;-68
2022/02/13 01:47:29;;;;;;;15.38;12.70;;;1.10;99.90;;;0.82;71.16;101695.28;5015845;28;20205;-68
2022/02/13 01:49:59;;;;;;;18.23;11.38;;;1.10;99.90;;;0.73;71.86;101690.69;4978565;28;20234;-67
2022/02/13 01:52:29;;;;;;;17.70;12.15;;;1.00;99.90;;;0.68;71.94;101686.69;4995950;28;20217;-69
2022/02/13 01:54:59;;;;;;;13.70;11.05;;;1.00;99.90;;;0.52;72.49;101683.53;4995987;28;20225;-68
2022/02/13 01:57:28;;;;;;;16.60;13.00;;;0.90;99.90;;;0.55;72.19;101683.28;4996066;28;20229;-68
2022/02/13 01:59:57;;;;;;;13.25;10.98;;;0.80;99.90;;;0.61;72.06;101672.16;4995905;28;20186;-68
2022/02/13 02:02:25;;;;;;;14.50;12.90;;;0.80;99.90;;;0.56;72.88;101679.66;4995778;28;20179;-68
2022/02/13 02:04:54;;;;;;;19.23;12.65;;;0.80;99.90;;;0.65;71.55;101674.47;4995797;28;20206;-68
2022/02/13 02:07:23;;;;;;;18.98;12.35;;;0.80;99.90;;;0.50;72.47;101662.34;4994652;28;20233;-69
2022/02/13 02:09:53;;;;;;;16.08;13.45;;;0.80;99.90;;;0.46;72.49;101662.69;4995946;28;20723;-68
2022/02/13 02:12:25;;;;;;;15.20;13.60;;;0.70;99.90;;;0.39;72.89;101660.50;4995797;28;20186;-68
2022/02/13 02:14:54;;;;;;;16.85;11.68;;;0.60;99.90;;;0.48;72.73;101650.13;4995618;28;20590;-68
2022/02/13 02:17:22;;;;;;;20.35;12.27;;;0.60;99.90;;;0.32;73.05;101647.78;4995781;28;20183;-68
2022/02/13 02:19:50;;;;;;;18.45;12.20;;;0.60;99.90;;;0.34;73.17;101649.34;4995645;28;20187;-69
2022/02/13 02:22:19;;;;;;;18.52;12.45;;;0.60;99.90;;;0.35;72.79;101648.38;4995594;28;20238;-68
2022/02/13 02:24:48;;;;;;;14.23;11.50;;;0.60;99.90;;;0.26;73.06;101637.59;4977955;28;20211;-68
2022/02/13 02:27:17;;;;;;;18.70;11.68;;;0.60;99.90;;;0.37;73.29;101635.81;4995785;28;20203;-68
2022/02/13 02:29:46;;;;;;;14.63;12.13;;;0.60;99.90;;;0.55;72.64;101628.19;4995659;28;20206;-69
2022/02/13 02:32:16;;;;;;;17.02;11.05;;;0.70;99.90;;;0.56;72.66;101629.06;4995535;28;20679;-67
2022/02/13 02:34:45;;;;;;;28.20;12.25;;;0.70;99.90;;;0.43;72.67;101632.69;4995367;28;20218;-67
2022/02/13 02:37:13;;;;;;;19.25;12.13;;;0.70;99.90;;;0.34;73.08;101627.19;4995814;28;20234;-68
2022/02/13 02:39:41;;;;;;;13.77;11.05;;;0.70;99.90;;;0.38;72.99;101624.22;4996007;28;20648;-69
2022/02/13 02:42:13;;;;;;;18.17;12.15;;;0.60;99.90;;;0.58;72.63;101614.63;4995817;28;20175;-69
2022/02/13 02:44:42;;;;;;;23.60;12.02;;;0.70;99.90;;;0.45;72.78;101619.22;4995681;28;20211;-68
2022/02/13 02:47:10;;;;;;;16.27;11.75;;;0.70;99.90;;;0.34;73.21;101609.41;4995686;28;20179;-69
2022/02/13 02:49:38;;;;;;;19.05;12.25;;;0.60;99.90;;;0.53;72.77;101613.31;4995679;28;20175;-68
2022/02/13 02:52:08;;;;;;;14.88;11.63;;;0.70;99.90;;;0.42;72.44;101609.69;4995153;28;20183;-67
2022/02/13 02:54:36;;;;;;;18.58;11.88;;;0.70;99.90;;;0.41;72.85;101597.34;4994769;28;20199;-69
2022/02/13 02:57:05;;;;;;;14.52;10.77;;;0.70;99.90;;;0.41;72.84;101594.66;4994889;28;20205;-68
2022/02/13 02:59:35;;;;;;;18.33;11.40;;;0.70;99.90;;;0.50;72.09;101594.91;4994956;28;20175;-68
2022/02/13 03:02:04;;;;;;;14.25;10.35;;;0.70;99.90;;;0.54;72.20;101601.69;4995015;28;20191;-68
2022/02/13 03:04:32;;;;;;;17.85;12.30;;;0.70;99.90;;;0.73;71.76;101591.25;4994601;28;20191;-68
2022/02/13 03:07:00;;;;;;;12.55;10.63;;;0.80;99.90;;;0.71;71.56;101586.09;4994934;28;20238;-67
2022/02/13 03:09:28;;;;;;;14.02;10.35;;;0.90;99.90;;;0.67;71.48;101581.97;4994879;28;20614;-68
2022/02/13 03:11:59;;;;;;;19.65;10.55;;;0.80;99.90;;;0.73;71.62;101596.59;4994594;28;20167;-69
2022/02/13 03:14:27;;;;;;;14.93;9.50;;;0.90;99.90;;;0.81;70.95;101578.19;4994437;28;20238;-69
2022/02/13 03:16:57;;;;;;;18.02;11.63;;;0.90;99.90;;;0.76;71.33;101572.41;4993089;28;20223;-69
2022/02/13 03:19:25;;;;;;;16.67;10.05;;;1.00;99.90;;;0.79;70.81;101570.31;4995002;28;20186;-68
2022/02/13 03:21:54;;;;;;;14.32;9.73;;;1.00;99.90;;;0.77;71.03;101572.28;4994632;28;20205;-68
2022/02/13 03:24:22;;;;;;;16.60;11.25;;;1.00;99.90;;;0.80;71.60;101573.84;4994019;28;20536;-68
2022/02/13 03:26:51;;;;;;;11.95;10.20;;;1.00;99.90;;;0.80;70.92;101576.50;4994454;28;20292;-68
2022/02/13 03:29:19;;;;;;;12.52;9.18;;;0.90;99.90;;;0.98;70.17;101575.00;4994261;28;20183;-67
2022/02/13 03:31:48;;;;;;;14.73;9.98;;;1.10;99.90;;;0.87;70.60;101577.72;4994292;28;20236;-68
2022/02/13 03:34:18;;;;;;;11.10;9.93;;;1.00;99.90;;;0.89;70.42;101581.09;4994568;28;20650;-69
2022/02/13 03:36:48;;;;;;;15.90;10.30;;;1.10;99.90;;;0.70;71.39;101576.38;4993857;28;20245;-66
2022/02/13 03:39:16;;;;;;;12.80;10.40;;;1.00;99.90;;;0.84;71.18;101568.13;4994210;28;20556;-68
2022/02/13 03:41:45;;;;;;;19.05;10.35;;;1.00;99.90;;;0.82;70.64;101555.94;4994075;28;20175;-67
2022/02/13 03:44:13;;;;;;;16.65;10.10;;;1.00;99.90;;;0.89;70.33;101559.78;4994106;28;20201;-67
2022/02/13 03:46:41;;;;;;;16.83;9.85;;;1.00;99.90;;;0.74;70.93;101561.00;4993856;28;20738;-68
2022/02/13 03:49:10;;;;;;;15.13;11.93;;;1.00;99.90;;;0.65;71.40;101545.75;4994012;28;20171;-68
2022/02/13 03:51:39;;;;;;;13.52;9.63;;;0.90;99.90;;;0.86;70.36;101538.72;4994071;28;20178;-68
2022/02/13 03:54:08;;;;;;;18.63;11.38;;;1.00;99.90;;;0.78;71.14;101543.78;4993895;28;20194;-69
2022/02/13 03:56:36;;;;;;;17.23;12.13;;;0.90;99.90;;;0.91;70.46;101536.53;4994528;28;20218;-68
2022/02/13 03:59:06;;;;;;;13.30;10.70;;;1.00;99.90;;;0.92;70.75;101527.53;4994385;28;20206;-69
2022/02/13 04:01:35;;;;;;;16.35;11.57;;;1.10;99.90;;;0.88;70.55;101536.75;4994032;28;20182;-69
2022/02/13 04:04:03;;;;;;;16.40;10.80;;;1.00;99.90;;;0.74;70.45;101529.03;4993839;28;20187;-69
2022/02/13 04:06:32;;;;;;;15.20;11.15;;;1.00;99.90;;;0.80;70.83;101525.88;4994237;28;20203;-69
2022/02/13 04:09:02;;;;;;;12.40;10.00;;;0.90;99.90;;;0.76;70.80;101524.44;4994193;28;20570;-68
2022/02/13 04:11:30;;;;;;;15.45;12.02;;;0.90;99.90;;;0.68;71.48;101524.19;4993503;28;20183;-68
2022/02/13 04:13:58;;;;;;;16.60;12.35;;;0.90;99.90;;;0.54;71.65;101519.13;4993715;28;20179;-68
2022/02/13 04:16:26;;;;;;;16.38;11.65;;;0.80;99.90;;;0.56;71.82;101510.06;4993383;28;20210;-68
2022/02/13 04:18:55;;;;;;;25.25;11.82;;;0.70;99.90;;;0.54;71.09;101517.31;4993542;28;20187;-68
2022/02/13 04:21:24;;;;;;;13.18;10.32;;;0.80;99.90;;;0.46;71.30;101513.56;4993507;28;20285;-68
2022/02/13 04:23:52;;;;;;;24.58;12.75;;;0.70;99.90;;;0.43;71.61;101512.88;4993729;28;20244;-69
2022/02/13 04:26:22;;;;;;;14.30;11.57;;;0.70;99.90;;;0.33;72.25;101519.03;4993222;28;20257;-69
2022/02/13 04:28:50;;;;;;;12.07;10.25;;;0.60;99.90;;;0.51;72.41;101519.38;4992668;28;20171;-69
2022/02/13 04:31:19;;;;;;;14.30;11.85;;;0.70;99.90;;;0.48;71.91;101527.63;4993161;28;20190;-68
2022/02/13 04:33:47;;;;;;;12.30;10.48;;;0.60;99.90;;;0.33;72.11;101535.84;4993373;28;20189;-67
2022/02/13 04:36:16;;;;;;;17.35;10.65;;;0.60;99.90;;;0.43;71.89;101526.19;4993229;28;20217;-68
2022/02/13 04:38:44;;;;;;;12.85;10.85;;;0.60;99.90;;;0.38;72.04;101522.19;4993219;28;20215;-67
2022/02/13 04:41:12;;;;;;;18.15;10.90;;;0.60;99.90;;;0.44;71.88;101509.22;4993270;28;20175;-68
2022/02/13 04:43:42;;;;;;;12.07;10.15;;;0.60;99.90;;;0.36;72.02;101502.81;4993401;28;20229;-67
2022/02/13 04:46:11;;;;;;;16.27;11.52;;;0.60;99.90;;;0.24;72.72;101504.59;4993152;28;20273;-67
2022/02/13 04:48:39;;;;;;;14.45;10.55;;;0.50;99.90;;;0.27;72.28;101492.88;4993371;28;20199;-68
2022/02/13 04:51:08;;;;;;;19.52;12.15;;;0.50;99.90;;;0.34;72.02;101500.25;4993407;28;20191;-69
2022/02/13 04:53:36;;;;;;;19.67;11.48;;;0.50;99.90;;;0.27;71.91;101493.75;4993359;28;20190;-68
2022/02/13 04:56:05;;;;;;;15.82;11.40;;;0.50;99.90;;;0.18;72.38;101483.81;4993150;28;20207;-68
2022/02/13 04:58:34;;;;;;;14.70;11.35;;;0.50;99.90;;;0.21;72.89;101483.56;4993175;28;20191;-68
2022/02/13 05:01:04;;;;;;;15.93;11.63;;;0.50;99.90;;;0.18;72.45;101483.81;4993206;28;20183;-68
2022/02/13 05:03:32;;;;;;;15.73;12.23;;;0.40;99.90;;;0.10;73.11;101485.41;4993515;28;20179;-68
2022/02/13 05:06:01;;;;;;;15.25;10.57;;;0.40;99.90;;;-0.03;73.21;101474.84;4993341;28;20703;-68
2022/02/13 05:08:32;;;;;;;17.52;12.20;;;0.30;99.90;;;0.11;73.09;101463.97;4993012;28;20163;-68
2022/02/13 05:11:00;;;;;;;17.15;11.68;;;0.30;99.90;;;-0.04;73.25;101470.50;4993181;28;20186;-68
2022/02/13 05:13:28;;;;;;;14.38;11.23;;;0.30;99.90;;;0.09;72.44;101463.25;4993092;28;20806;-68
2022/02/13 05:15:56;;;;;;;18.75;11.55;;;0.30;99.90;;;0.07;72.60;101454.53;4993018;28;20277;-68
2022/02/13 05:18:26;;;;;;;17.60;12.10;;;0.30;99.90;;;0.19;73.12;101450.06;4993440;28;20550;-67
2022/02/13 05:20:54;;;;;;;17.52;11.80;;;0.30;99.90;;;0.20;72.35;101449.06;4993522;28;20175;-69
2022/02/13 05:23:24;;;;;;;14.63;11.30;;;0.40;99.90;;;0.04;72.87;101438.81;4993497;28;20644;-69
2022/02/13 05:25:52;;;;;;;14.60;11.52;;;0.30;99.90;;;0.03;72.57;101431.81;4993266;28;20632;-69
2022/02/13 05:28:20;;;;;;;15.93;10.95;;;0.30;99.90;;;-0.01;73.16;101433.00;4993188;28;20691;-68
2022/02/13 05:30:49;;;;;;;17.27;13.15;;;0.20;99.90;;;0.13;72.66;101432.75;4993686;28;20195;-68
2022/02/13 05:33:17;;;;;;;24.00;13.70;;;0.30;99.90;;;0.06;72.79;101420.91;4993442;28;20183;-68
2022/02/13 05:35:47;;;;;;;15.95;12.90;;;0.30;99.90;;;0.05;73.12;101429.03;4994612;28;20217;-67
2022/02/13 05:38:15;;;;;;;19.13;12.80;;;0.20;99.90;;;-0.08;73.37;101429.13;4993826;28;20195;-68
2022/02/13 05:40:43;;;;;;;18.05;13.63;;;0.20;99.90;;;0.01;73.29;101433.72;4996103;28;20203;-70
2022/02/13 05:43:12;;;;;;;16.75;13.73;;;0.20;99.90;;;0.11;73.01;101433.84;4998835;28;20171;-69
2022/02/13 05:45:42;;;;;;;17.00;11.70;;;0.20;99.90;;;0.08;72.32;101428.78;5000051;28;20653;-68
2022/02/13 05:48:13;;;;;;;14.40;11.85;;;0.20;99.90;;;0.02;73.10;101439.91;5003936;28;20186;-68
2022/02/13 05:50:43;;;;;;;15.32;11.82;;;0.20;99.90;;;-0.03;72.88;101429.63;5009423;28;20175;-68
2022/02/13 05:53:13;;;;;;;14.20;11.40;;;0.20;99.90;;;0.09;72.48;101436.66;5006296;28;20254;-68
2022/02/13 05:55:41;;;;;;;17.73;11.90;;;0.30;99.90;;;-0.02;73.14;101423.34;5009849;28;20217;-68
2022/02/13 05:58:09;;;;;;;17.20;12.80;;;0.30;99.90;;;-0.09;73.32;101416.78;5010123;28;20195;-68
2022/02/13 06:00:38;;;;;;;15.82;10.52;;;0.20;99.90;;;0.04;73.30;101411.38;5012159;28;20190;-69
2022/02/13 06:03:06;;;;;;;15.77;12.23;;;0.20;99.90;;;-0.01;72.94;101393.94;5012403;28;20242;-69
2022/02/13 06:05:35;;;;;;;14.32;11.23;;;0.20;99.90;;;-0.08;73.11;101390.06;5015556;28;20244;-69
2022/02/13 06:08:03;;;;;;;17.00;11.80;;;0.20;99.90;;;-0.01;73.23;101387.78;5007837;28;20187;-68
2022/02/13 06:10:33;;;;;;;14.20;11.60;;;0.20;99.90;;;0.07;72.95;101380.03;5006221;28;20191;-68
2022/02/13 06:13:01;;;;;;;16.05;10.43;;;0.20;99.90;;;-0.04;72.84;101385.34;4996194;28;20187;-68
2022/02/13 06:15:29;;;;;;;15.98;11.88;;;0.20;99.90;;;0.00;73.58;101392.13;4996280;28;20711;-68
2022/02/13 06:17:58;;;;;;;15.10;11.93;;;0.20;99.90;;;-0.02;72.78;101388.75;4995051;28;20214;-69
2022/02/13 06:20:26;;;;;;;16.67;11.55;;;0.20;99.90;;;-0.04;72.86;101394.19;4995885;28;20175;-69
2022/02/13 06:22:54;;;;;;;17.70;11.93;;;0.20;99.90;;;-0.11;73.84;101385.00;4995813;28;20215;-69
2022/02/13 06:25:23;;;;;;;16.55;11.77;;;0.10;99.90;;;-0.04;73.50;101388.00;4995429;28;20206;-69
2022/02/13 06:27:53;;;;;;;13.48;11.80;;;0.10;99.90;;;0.05;73.21;101373.97;4995774;28;20175;-68
2022/02/13 06:30:21;;;;;;;21.83;12.07;;;0.20;99.90;;;0.15;72.90;101382.06;4995716;28;20175;-67
2022/02/13 06:32:49;;;;;;;14.43;10.52;;;0.30;99.90;;;0.11;72.30;101378.81;4995742;28;20174;-68
2022/02/13 06:35:18;;;;;;;22.13;12.55;;;0.30;99.90;;;0.07;72.87;101364.06;4995970;28;20690;-68
2022/02/13 06:37:46;;;;;;;14.60;11.55;;;0.30;99.90;;;0.09;72.73;101371.94;4995553;28;20195;-69
2022/02/13 06:40:14;;;;;;;15.52;11.85;;;0.30;99.90;;;0.23;72.42;101375.16;4995762;28;20175;-68
2022/02/13 06:42:43;;;;;;;14.52;11.30;;;0.40;99.90;;;0.28;72.27;101383.63;4995709;28;20246;-68
2022/02/13 06:45:14;;;;;;;14.88;11.30;;;0.40;99.90;;;0.25;72.53;101377.69;4995341;28;20623;-69
2022/02/13 06:47:43;;;;;;;14.35;10.68;;;0.40;99.90;;;0.33;72.54;101373.47;5006950;28;20670;-68
2022/02/13 06:50:12;;;;;;;13.23;10.07;;;0.40;99.90;;;0.25;72.31;101370.56;5007980;28;20183;-67
2022/02/13 06:52:40;;;;;;;15.23;12.27;;;0.40;99.90;;;0.33;72.30;101375.28;5005229;28;20266;-69
2022/02/13 06:55:10;;;;;;;14.85;10.60;;;0.50;99.90;;;0.34;72.09;101377.78;5002732;28;20238;-68
2022/02/13 06:57:44;;;;;;;14.20;10.45;;;0.50;99.90;;;0.54;71.17;101377.97;5003283;28;20213;-68
2022/02/13 07:00:16;;;;;;;15.05;10.73;;;0.60;99.90;;;0.53;71.41;101377.16;4999480;28;20554;-68
2022/02/13 07:02:46;;;;;;;19.23;10.30;;;0.60;99.90;;;0.61;71.16;101377.34;4995992;28;20179;-68
2022/02/13 07:05:15;;;;;;;12.35;10.20;;;0.60;99.90;;;0.63;70.85;101372.72;4995177;28;20203;-68
2022/02/13 07:07:43;;;;;;;13.77;10.48;;;0.70;99.90;;;0.67;70.58;101373.34;4995298;28;20598;-68
2022/02/13 07:10:13;;;;;;;16.63;11.65;;;0.70;99.90;;;0.70;70.49;101373.09;4994734;28;20175;-67
2022/02/13 07:12:42;;;;;;;12.55;9.85;;;0.70;99.90;;;0.65;71.18;101372.63;4994916;28;20602;-68
2022/02/13 07:15:11;;;;;;;14.27;10.90;;;0.70;99.90;;;0.79;70.52;101367.84;4995085;28;20239;-68
2022/02/13 07:17:45;;;;;;;10.57;9.35;;;0.80;99.90;;;0.82;70.08;101364.09;4994673;28;20550;-68
2022/02/13 07:20:14;;;;;;;14.15;10.52;;;0.90;99.90;;;0.88;69.84;101360.88;4994536;28;20183;-68
2022/02/13 07:22:43;;;;;;;12.88;10.52;;;1.00;99.90;;;0.86;70.31;101354.84;4977055;28;20389;-68
2022/02/13 07:25:11;;;;;;;11.93;9.15;;;1.00;99.90;;;0.98;69.62;101350.31;4994689;28;20211;-69
2022/02/13 07:27:40;;;;;;;15.23;10.70;;;1.00;99.90;;;1.00;69.77;101349.22;4994956;28;20584;-69
2022/02/13 07:30:13;;;;;;;13.88;10.35;;;1.00;99.90;;;1.08;69.41;101332.56;4994793;28;20190;-67
2022/02/13 07:32:45;;;;;;;15.60;9.80;;;1.20;99.90;;;1.10;69.37;101328.81;4994984;28;20531;-68
2022/02/13 07:35:15;;;;;;;16.98;10.55;;;1.20;99.90;;;1.17;69.05;101331.78;4994684;28;20221;-68
2022/02/13 07:37:44;;;;;;;13.15;10.63;;;1.20;99.90;;;1.26;69.04;101331.81;4994613;28;20617;-67
2022/02/13 07:40:14;;;;;;;16.13;11.10;;;1.30;99.90;;;1.23;68.85;101334.75;4994599;28;20183;-68
2022/02/13 07:42:44;;;;;;;16.35;10.65;;;1.30;99.90;;;1.33;68.72;101339.31;4995210;28;20185;-69
2022/02/13 07:45:13;;;;;;;11.18;9.77;;;1.40;99.90;;;1.35;68.38;101338.22;5019808;23;20315;-73
2022/02/13 07:47:52;;;;;;;17.02;10.32;;;1.40;99.90;;;1.40;68.41;101340.47;5018547;28;20212;-72
2022/02/13 07:50:34;;;;;;;14.90;10.05;;;1.40;99.90;;;1.40;67.97;101352.00;4982214;28;20218;-73
2022/02/13 07:53:08;;;;;;;12.57;9.68;;;1.50;99.90;;;1.42;68.65;101339.34;5002237;28;20177;-73
2022/02/13 07:55:42;;;;;;;12.10;10.55;;;1.50;99.90;;;1.45;68.32;101332.94;5000935;28;20207;-74
2022/02/13 07:58:10;;;;;;;13.15;10.15;;;1.50;99.90;;;1.61;67.91;101338.59;5000008;28;20206;-72
2022/02/13 08:00:39;;;;;;;15.25;9.32;;;1.60;99.90;;;1.55;67.95;101318.63;5001845;28;20242;-72
2022/02/13 08:03:18;;;;;;;14.88;10.23;;;1.60;99.90;;;1.57;67.82;101322.03;5002376;28;20250;-74
2022/02/13 08:05:46;;;;;;;13.85;10.77;;;1.60;99.30;;;1.68;67.53;101318.44;5002480;28;20608;-73
2022/02/13 08:08:14;;;;;;;13.07;9.00;;;1.70;98.50;;;1.73;67.55;101321.53;5002555;28;20175;-73
2022/02/13 08:10:43;;;;;;;11.38;9.10;;;1.70;98.70;;;1.79;67.61;101320.16;5000436;28;20175;-75
2022/02/13 08:13:13;;;;;;;13.73;10.10;;;1.80;99.00;;;2.01;66.77;101317.25;4997184;28;20582;-73
2022/02/13 08:15:41;;;;;;;16.13;9.73;;;1.90;97.80;;;2.10;66.67;101319.97;4994556;28;20175;-72
2022/02/13 08:18:16;;;;;;;22.08;8.55;;;2.00;96.00;;;2.23;66.05;101324.22;4974997;28;20214;-74
2022/02/13 08:20:46;;;;;;;12.48;8.55;;;2.20;94.10;;;2.29;66.26;101327.16;4992967;28;20736;-72
2022/02/13 08:23:19;;;;;;;15.68;9.70;;;2.30;94.00;;;2.35;65.63;101315.94;4993229;28;20203;-72
2022/02/13 08:25:48;;;;;;;12.90;8.95;;;2.30;91.50;;;2.41;65.89;101318.03;4991486;28;20191;-73
2022/02/13 08:28:21;;;;;;;13.90;9.95;;;2.40;91.40;;;2.54;65.35;101318.59;4992910;28;20655;-74
2022/02/13 08:30:58;;;;;;;13.65;9.10;;;2.50;91.00;;;2.65;65.23;101314.97;4974438;28;20266;-73
2022/02/13 08:33:28;;;;;;;12.40;8.55;;;2.60;90.40;;;2.77;64.60;101313.81;4975992;28;20210;-75
2022/02/13 08:35:56;;;;;;;13.20;10.43;;;2.70;85.80;;;2.85;64.36;101313.13;4995433;28;20175;-74
2022/02/13 08:38:25;;;;;;;12.50;8.93;;;2.80;79.20;;;2.81;64.29;101320.56;4976324;28;20313;-72
2022/02/13 08:40:56;;;;;;;9.82;8.38;;;2.80;77.50;;;2.96;64.74;101319.13;4974745;28;20211;-74
2022/02/13 08:43:25;;;;;;;14.82;8.73;;;2.80;81.40;;;3.09;63.76;101312.66;4992714;28;20246;-72
2022/02/13 08:45:54;;;;;;;12.65;9.55;;;3.00;77.00;;;3.03;63.54;101306.06;4992692;28;20613;-72
2022/02/13 08:48:23;;;;;;;12.93;9.15;;;3.00;62.10;;;2.98;63.62;101306.50;4992212;28;20293;-72
2022/02/13 08:50:53;;;;;;;10.65;8.50;;;3.00;99.90;;;3.02;63.86;101323.06;4992693;28;20187;-71
2022/02/13 08:53:23;;;;;;;14.88;9.50;;;2.90;99.90;;;3.03;63.45;101320.28;4992399;28;20183;-73
2022/02/13 08:55:51;;;;;;;10.30;8.95;;;3.00;99.90;;;2.97;63.64;101320.00;4993550;28;20190;-73
2022/02/13 08:58:20;;;;;;;12.48;8.20;;;3.00;99.90;;;3.18;63.37;101312.66;4992584;28;20225;-72
2022/02/13 09:00:48;;;;;;;13.18;10.32;;;3.10;99.90;;;3.49;62.32;101321.25;4992088;28;20183;-72
2022/02/13 09:03:18;;;;;;;12.82;8.85;;;3.30;99.90;;;3.36;62.58;101321.59;4993299;28;20586;-72
2022/02/13 09:05:46;;;;;;;12.70;9.75;;;3.40;99.90;;;3.35;63.01;101325.25;4992891;28;20330;-72
2022/02/13 09:08:16;;;;;;;11.13;7.85;;;3.30;99.90;;;3.62;62.29;101327.16;4992329;28;20175;-72
2022/02/13 09:10:45;;;;;;;10.75;8.48;;;3.50;99.90;;;3.75;62.03;101327.66;4993128;28;20179;-73
2022/02/13 09:13:13;;;;;;;14.73;9.88;;;3.70;99.90;;;3.71;61.96;101336.97;4994152;28;20186;-73
2022/02/13 09:15:42;;;;;;;11.85;8.05;;;3.70;99.90;;;3.74;61.52;101328.66;4994315;28;20586;-74
2022/02/13 09:18:14;;;;;;;15.18;8.57;;;3.70;99.90;;;3.74;61.92;101325.13;4997453;28;20521;-75
2022/02/13 09:20:45;;;;;;;8.98;8.00;;;3.70;99.90;;;3.97;61.14;101325.59;4997307;28;20190;-74
2022/02/13 09:23:17;;;;;;;8.32;7.50;;;3.90;99.90;;;4.07;61.11;101324.53;4997642;28;20171;-73
2022/02/13 09:25:46;;;;;;;13.50;8.75;;;3.90;99.90;;;4.32;60.65;101321.13;4979905;28;20179;-72
2022/02/13 09:28:17;;;;;;;10.68;8.43;;;4.10;99.90;;;4.34;59.85;101324.50;4996748;28;20552;-73
2022/02/13 09:30:47;;;;;;;7.97;6.78;;;4.30;99.90;;;4.23;60.33;101321.19;4996340;28;20195;-72
2022/02/13 09:33:23;;;;;;;8.85;7.22;;;4.20;99.90;;;4.38;59.79;101319.69;4996088;28;20174;-72
2022/02/13 09:35:52;;;;;;;11.95;8.85;;;4.30;99.90;;;4.63;59.30;101310.91;4997109;28;20179;-74
2022/02/13 09:38:23;;;;;;;10.43;8.82;;;4.50;99.90;;;4.45;59.80;101304.69;4997070;28;20309;-73
2022/02/13 09:40:52;;;;;;;9.60;7.60;;;4.40;99.90;;;4.71;59.21;101297.56;4995314;28;20564;-72
2022/02/13 09:43:21;;;;;;;9.00;7.78;;;4.50;99.90;;;4.93;58.37;101300.75;4998113;28;20171;-72
2022/02/13 09:45:53;;;;;;;10.60;7.75;;;4.70;99.80;;;5.02;58.11;101299.81;4995687;28;20213;-72
2022/02/13 09:48:25;;;;;;;9.88;7.97;;;4.80;98.80;;;5.12;57.72;101298.72;4979142;28;20426;-73
2022/02/13 09:50:58;;;;;;;9.10;7.30;;;5.00;98.40;;;5.15;57.92;101286.81;4996048;28;20230;-72
2022/02/13 09:53:34;;;;;;;14.25;8.18;;;5.10;96.60;;;5.25;57.22;101287.56;4996199;28;20202;-73
2022/02/13 09:56:04;;;;;;;11.07;8.30;;;5.20;95.50;;;5.29;56.90;101282.72;4996313;28;20183;-72
2022/02/13 09:58:34;;;;;;;13.63;10.30;;;5.20;94.20;;;5.55;56.33;101272.81;4994904;28;20218;-73
2022/02/13 10:01:06;;;;;;;8.05;7.18;;;5.40;93.90;;;5.66;56.00;101278.72;4996612;28;20214;-73
2022/02/13 10:03:37;;;;;;;10.82;7.05;;;5.50;93.00;;;5.81;55.50;101272.75;4997279;28;20197;-73
2022/02/13 10:06:23;;;;;;;9.50;7.80;;;5.60;92.00;;;6.04;54.77;101274.72;4995769;28;20540;-72
2022/02/13 10:08:55;;;;;;;9.80;7.25;;;5.80;90.70;;;5.81;53.88;101267.41;4995755;28;20210;-73
2022/02/13 10:11:26;;;;;;;13.65;9.15;;;5.80;86.80;;;5.71;53.98;101261.31;4995469;28;20582;-74
2022/02/13 10:13:58;;;;;;;7.13;6.32;;;5.70;82.50;;;5.60;53.95;101268.66;4995848;28;20183;-72
2022/02/13 10:16:30;;;;;;;8.68;6.75;;;5.60;78.90;;;5.48;53.98;101267.22;4997108;28;20226;-74
2022/02/13 10:19:02;;;;;;;7.63;6.75;;;5.50;75.80;;;5.55;54.28;101265.59;5000677;28;20207;-74
2022/02/13 10:21:38;;;;;;;9.68;6.85;;;5.40;74.50;;;5.76;53.51;101267.03;5001092;28;20190;-74
2022/02/13 10:24:27;;;;;;;12.75;7.60;;;5.60;75.10;;;5.93;53.80;101271.47;5002900;28;20241;-73